Time;durP1;ratioP1;P1;durP2;ratioP2;P2;SDS_P1;SDS_P2;PMS_P1;PMS_P2;Temp;Humidity;BMP_temperature;BMP_pressure;BME280_temperature;BME280_humidity;BME280_pressure;Samples;Min_cycle;Max_cycle;Signal;HPM_P1;HPM_P2
2022/06/01 00:00:49;;;;;;;17.27;15.32;;;;;;;;;;5104005;28;20043;-65
2022/06/01 00:03:16;;;;;;;21.48;16.83;;;;;;;;;;5100145;28;20425;-65
2022/06/01 00:05:42;;;;;;;17.95;16.05;;;;;;;;;;5103269;28;20035;-65
2022/06/01 00:08:09;;;;;;;18.70;16.08;;;;;;;;;;5099947;28;20032;-65
2022/06/01 00:10:35;;;;;;;19.23;16.48;;;;;;;;;;5104157;28;20047;-65
2022/06/01 00:13:01;;;;;;;23.67;16.40;;;;;;;;;;5104767;28;20051;-65
2022/06/01 00:15:28;;;;;;;20.63;15.93;;;;;;;;;;5105405;28;20367;-65
2022/06/01 00:17:57;;;;;;;21.10;15.75;;;;;;;;;;5099720;28;20066;-65
2022/06/01 00:20:23;;;;;;;20.85;15.98;;;;;;;;;;5101990;28;20043;-65
2022/06/01 00:22:49;;;;;;;17.38;15.40;;;;;;;;;;5098178;28;20051;-65
2022/06/01 00:25:16;;;;;;;18.88;16.15;;;;;;;;;;5104247;28;20051;-65
2022/06/01 00:27:42;;;;;;;17.98;16.00;;;;;;;;;;5100585;28;20046;-65
2022/06/01 00:30:11;;;;;;;18.40;16.40;;;;;;;;;;5102111;28;20040;-65
2022/06/01 00:32:37;;;;;;;20.35;17.73;;;;;;;;;;5101613;28;20258;-65
2022/06/01 00:35:04;;;;;;;17.95;16.15;;;;;;;;;;5106367;28;20110;-65
2022/06/01 00:37:30;;;;;;;17.55;15.68;;;;;;;;;;5102325;28;20083;-65
2022/06/01 00:39:56;;;;;;;22.85;17.90;;;;;;;;;;5101377;28;20383;-65
2022/06/01 00:42:24;;;;;;;21.02;17.20;;;;;;;;;;5096828;28;20043;-65
2022/06/01 00:44:51;;;;;;;18.77;16.77;;;;;;;;;;5084316;28;20044;-65
2022/06/01 00:47:18;;;;;;;18.17;15.18;;;;;;;;;;5086239;28;20662;-66
2022/06/01 00:49:47;;;;;;;17.80;15.90;;;;;;;;;;5082777;28;20071;-65
2022/06/01 00:52:13;;;;;;;18.73;16.80;;;;;;;;;;5082307;28;20048;-65
2022/06/01 00:54:40;;;;;;;17.40;15.60;;;;;;;;;;5086777;28;20093;-65
2022/06/01 00:57:09;;;;;;;16.75;15.00;;;;;;;;;;5064731;28;20136;-65
2022/06/01 00:59:37;;;;;;;17.48;15.15;;;;;;;;;;5086580;28;20445;-65
2022/06/01 01:02:04;;;;;;;15.00;13.50;;;;;;;;;;5084111;28;20036;-65
2022/06/01 01:04:33;;;;;;;20.17;16.30;;;;;;;;;;5069182;28;20071;-65
2022/06/01 01:07:03;;;;;;;22.67;16.95;;;;;;;;;;5084034;28;20055;-65
2022/06/01 01:09:30;;;;;;;18.05;16.15;;;;;;;;;;5085320;28;20399;-65
2022/06/01 01:11:59;;;;;;;21.73;18.52;;;;;;;;;;5084823;28;20040;-65
2022/06/01 01:14:27;;;;;;;18.85;16.08;;;;;;;;;;5085110;28;20461;-65
2022/06/01 01:16:54;;;;;;;22.88;18.58;;;;;;;;;;5068156;28;20048;-65
2022/06/01 01:19:32;;;;;;;21.92;17.95;;;;;;;;;;5084915;28;20035;-65
2022/06/01 01:22:02;;;;;;;20.77;18.40;;;;;;;;;;5062108;28;20063;-65
2022/06/01 01:24:34;;;;;;;19.65;17.48;;;;;;;;;;5086701;28;20039;-65
2022/06/01 01:27:00;;;;;;;23.05;18.52;;;;;;;;;;5065998;28;20744;-65
2022/06/01 01:29:34;;;;;;;19.65;17.55;;;;;;;;;;5083045;28;20044;-65
2022/06/01 01:32:01;;;;;;;21.23;18.75;;;;;;;;;;5085347;28;20043;-65
2022/06/01 01:34:28;;;;;;;21.92;19.08;;;;;;;;;;5077645;28;20048;-65
2022/06/01 01:36:56;;;;;;;22.52;18.27;;;;;;;;;;5086582;28;20048;-65
2022/06/01 01:39:23;;;;;;;24.05;20.02;;;;;;;;;;5082549;28;20079;-65
2022/06/01 01:41:50;;;;;;;21.83;18.90;;;;;;;;;;5082912;28;20145;-65
2022/06/01 01:44:20;;;;;;;24.17;18.90;;;;;;;;;;5097460;28;20108;-65
2022/06/01 01:46:47;;;;;;;24.20;19.98;;;;;;;;;;5100185;28;20075;-65
2022/06/01 01:49:14;;;;;;;20.83;18.35;;;;;;;;;;5104091;28;20491;-65
2022/06/01 01:51:41;;;;;;;21.63;19.35;;;;;;;;;;5100843;28;20039;-65
2022/06/01 01:54:11;;;;;;;25.55;19.35;;;;;;;;;;5106364;28;20044;-65
2022/06/01 01:57:02;;;;;;;22.88;18.73;;;;;;;;;;5102502;28;20082;-65
2022/06/01 01:59:32;;;;;;;23.17;18.75;;;;;;;;;;5104828;28;20134;-65
2022/06/01 02:02:10;;;;;;;20.92;18.70;;;;;;;;;;5101575;28;20047;-65
2022/06/01 02:07:30;;;;;;;21.75;17.70;;;;;;;;;;5101050;28;20441;-65
2022/06/01 02:12:42;;;;;;;24.13;19.17;;;;;;;;;;5104597;28;20032;-65
2022/06/01 02:15:09;;;;;;;28.10;19.13;;;;;;;;;;5105288;28;20121;-65
2022/06/01 02:17:40;;;;;;;24.98;20.73;;;;;;;;;;5091491;28;20036;-65
2022/06/01 02:20:10;;;;;;;25.05;21.00;;;;;;;;;;5107079;28;20183;-65
2022/06/01 02:22:37;;;;;;;25.88;21.45;;;;;;;;;;5106837;28;20123;-65
2022/06/01 02:25:04;;;;;;;24.58;21.42;;;;;;;;;;5091228;28;20174;-65
2022/06/01 02:27:30;;;;;;;22.38;19.98;;;;;;;;;;5106003;28;20050;-65
2022/06/01 02:30:07;;;;;;;23.13;20.30;;;;;;;;;;5105784;28;20135;-65
2022/06/01 02:32:34;;;;;;;21.08;16.25;;;;;;;;;;5101506;28;20055;-65
2022/06/01 02:35:02;;;;;;;22.25;19.95;;;;;;;;;;5102311;28;20700;-65
2022/06/01 02:37:30;;;;;;;25.55;21.17;;;;;;;;;;5109676;28;20051;-65
2022/06/01 02:39:57;;;;;;;28.15;20.75;;;;;;;;;;5111854;28;20188;-65
2022/06/01 02:42:30;;;;;;;23.02;20.52;;;;;;;;;;5105891;28;20456;-66
2022/06/01 02:44:57;;;;;;;24.48;20.58;;;;;;;;;;5087767;28;20140;-65
2022/06/01 02:47:24;;;;;;;28.13;21.58;;;;;;;;;;5091269;28;20055;-65
2022/06/01 02:49:50;;;;;;;24.55;21.63;;;;;;;;;;5070334;28;20048;-65
2022/06/01 02:52:17;;;;;;;27.20;23.08;;;;;;;;;;5069244;28;20044;-65
2022/06/01 02:54:43;;;;;;;25.20;22.40;;;;;;;;;;5072209;28;20040;-65
2022/06/01 02:57:09;;;;;;;27.55;23.30;;;;;;;;;;5089525;28;20048;-65
2022/06/01 02:59:36;;;;;;;29.00;23.65;;;;;;;;;;5090428;28;20089;-65
2022/06/01 03:02:03;;;;;;;28.25;24.63;;;;;;;;;;5070399;28;20145;-65
2022/06/01 03:04:29;;;;;;;28.48;22.70;;;;;;;;;;5090260;28;20348;-65
2022/06/01 03:06:55;;;;;;;28.42;24.60;;;;;;;;;;5081146;28;20054;-65
2022/06/01 03:09:22;;;;;;;28.58;23.25;;;;;;;;;;5063711;28;20040;-64
2022/06/01 03:11:48;;;;;;;30.42;24.42;;;;;;;;;;5087049;28;20040;-65
2022/06/01 03:14:14;;;;;;;26.13;23.38;;;;;;;;;;5084437;28;20068;-65
2022/06/01 03:16:41;;;;;;;26.67;23.08;;;;;;;;;;5067484;28;20123;-65
2022/06/01 03:19:07;;;;;;;23.92;21.38;;;;;;;;;;5086033;28;20135;-65
2022/06/01 03:21:33;;;;;;;30.33;23.75;;;;;;;;;;5065726;28;20039;-65
2022/06/01 03:24:01;;;;;;;30.27;24.00;;;;;;;;;;5087624;28;20173;-65
2022/06/01 03:26:27;;;;;;;28.75;23.83;;;;;;;;;;5084972;28;20126;-65
2022/06/01 03:28:54;;;;;;;27.88;23.27;;;;;;;;;;5080157;28;20418;-65
2022/06/01 03:31:20;;;;;;;26.13;23.33;;;;;;;;;;5087537;28;20492;-65
2022/06/01 03:33:46;;;;;;;27.30;24.33;;;;;;;;;;5088767;28;20036;-65
2022/06/01 03:36:12;;;;;;;26.48;22.42;;;;;;;;;;5072937;28;20047;-65
2022/06/01 03:38:39;;;;;;;24.20;20.42;;;;;;;;;;5086249;28;20583;-65
2022/06/01 03:41:05;;;;;;;25.77;22.83;;;;;;;;;;5087457;28;20134;-65
2022/06/01 03:45:55;;;;;;;29.25;25.15;;;;;;;;;;5090159;28;20123;-65
2022/06/01 03:46:18;;;;;;;27.92;24.90;;;;;;;;;;5086271;28;20079;-65
2022/06/01 03:48:44;;;;;;;27.27;23.40;;;;;;;;;;5085982;28;20051;-70
2022/06/01 03:51:10;;;;;;;31.13;25.60;;;;;;;;;;5071020;28;20085;-67
2022/06/01 03:53:36;;;;;;;35.42;26.05;;;;;;;;;;5073639;28;20406;-65
2022/06/01 03:56:03;;;;;;;28.02;24.98;;;;;;;;;;5088251;28;20048;-65
2022/06/01 03:58:29;;;;;;;27.42;24.30;;;;;;;;;;5085511;28;20040;-65
2022/06/01 04:00:56;;;;;;;27.92;24.92;;;;;;;;;;5086274;28;20082;-65
2022/06/01 04:03:22;;;;;;;26.67;23.30;;;;;;;;;;5086630;28;20040;-65
2022/06/01 04:05:48;;;;;;;25.70;23.00;;;;;;;;;;5086920;28;20576;-65
2022/06/01 04:08:14;;;;;;;30.17;25.52;;;;;;;;;;5086061;28;20051;-65
2022/06/01 04:10:43;;;;;;;27.85;24.85;;;;;;;;;;5083954;28;20048;-65
2022/06/01 04:13:10;;;;;;;29.55;26.35;;;;;;;;;;5066865;28;20149;-65
2022/06/01 04:15:36;;;;;;;30.05;24.13;;;;;;;;;;5087219;28;20103;-65
2022/06/01 04:18:04;;;;;;;29.30;25.58;;;;;;;;;;5067641;28;20379;-65
2022/06/01 04:20:30;;;;;;;32.38;27.42;;;;;;;;;;5088481;28;20651;-65
2022/06/01 04:22:58;;;;;;;30.08;24.90;;;;;;;;;;5086941;28;20048;-65
2022/06/01 04:25:24;;;;;;;28.48;24.83;;;;;;;;;;5089347;28;21100;-66
2022/06/01 04:27:51;;;;;;;29.20;22.65;;;;;;;;;;5088370;28;20107;-65
2022/06/01 04:30:17;;;;;;;27.88;24.42;;;;;;;;;;5089463;28;20123;-65
2022/06/01 04:32:45;;;;;;;26.15;23.13;;;;;;;;;;5079767;28;20070;-65
2022/06/01 04:35:11;;;;;;;26.77;23.63;;;;;;;;;;5079411;28;20036;-65
2022/06/01 04:37:37;;;;;;;26.00;23.10;;;;;;;;;;5063839;28;20049;-65
2022/06/01 04:40:04;;;;;;;29.13;24.17;;;;;;;;;;5082580;28;20032;-65
2022/06/01 04:42:30;;;;;;;28.95;25.08;;;;;;;;;;5085601;28;20044;-65
2022/06/01 04:44:57;;;;;;;27.20;24.05;;;;;;;;;;5085688;28;20044;-65
2022/06/01 04:47:24;;;;;;;31.85;25.60;;;;;;;;;;5087634;28;21825;-65
2022/06/01 04:49:50;;;;;;;30.45;25.13;;;;;;;;;;5078707;28;20048;-65
2022/06/01 04:52:16;;;;;;;43.45;29.52;;;;;;;;;;5079771;28;20051;-65
2022/06/01 04:54:42;;;;;;;54.28;30.63;;;;;;;;;;5088236;28;20452;-65
2022/06/01 04:57:09;;;;;;;54.00;30.58;;;;;;;;;;5067090;28;20067;-65
2022/06/01 04:59:35;;;;;;;41.40;29.10;;;;;;;;;;5081604;28;20043;-65
2022/06/01 05:02:01;;;;;;;39.20;27.40;;;;;;;;;;5082857;28;20074;-65
2022/06/01 05:04:29;;;;;;;31.60;24.00;;;;;;;;;;5080236;28;20131;-65
2022/06/01 05:06:56;;;;;;;32.95;25.50;;;;;;;;;;5080155;28;20078;-65
2022/06/01 05:09:22;;;;;;;36.40;25.85;;;;;;;;;;5077631;28;20119;-65
2022/06/01 05:11:48;;;;;;;32.95;26.38;;;;;;;;;;5076646;28;20036;-65
2022/06/01 05:14:14;;;;;;;35.10;26.83;;;;;;;;;;5060587;28;20044;-65
2022/06/01 05:16:41;;;;;;;31.65;26.20;;;;;;;;;;5078812;28;20391;-65
2022/06/01 05:19:07;;;;;;;27.98;21.63;;;;;;;;;;5075966;28;20663;-65
2022/06/01 05:21:33;;;;;;;36.63;24.67;;;;;;;;;;5080234;28;20404;-65
2022/06/01 05:24:00;;;;;;;34.63;24.92;;;;;;;;;;5080230;28;20036;-65
2022/06/01 05:26:26;;;;;;;32.95;25.95;;;;;;;;;;5082062;28;20048;-67
2022/06/01 05:28:53;;;;;;;46.20;29.85;;;;;;;;;;5059473;28;20053;-64
2022/06/01 05:31:20;;;;;;;36.03;25.63;;;;;;;;;;5078255;28;20344;-65
2022/06/01 05:33:46;;;;;;;41.80;28.67;;;;;;;;;;5060652;28;20514;-64
2022/06/01 05:36:13;;;;;;;37.03;28.00;;;;;;;;;;5058413;28;20040;-64
2022/06/01 05:38:40;;;;;;;41.53;29.35;;;;;;;;;;5082844;28;20145;-64
2022/06/01 05:41:07;;;;;;;36.53;25.98;;;;;;;;;;5079854;28;20049;-70
2022/06/01 05:43:34;;;;;;;36.20;25.67;;;;;;;;;;5076932;28;20111;-65
2022/06/01 05:46:02;;;;;;;34.28;26.45;;;;;;;;;;5060464;28;20139;-65
2022/06/01 05:48:28;;;;;;;31.95;25.85;;;;;;;;;;5078129;28;20040;-65
2022/06/01 05:50:54;;;;;;;40.35;27.35;;;;;;;;;;5084170;28;20044;-65
2022/06/01 05:53:20;;;;;;;31.58;23.33;;;;;;;;;;5074633;28;20040;-65
2022/06/01 05:55:47;;;;;;;26.35;22.15;;;;;;;;;;5084175;28;20122;-65
2022/06/01 05:58:14;;;;;;;28.48;22.73;;;;;;;;;;5063759;28;20496;-70
2022/06/01 06:00:41;;;;;;;27.33;21.08;;;;;;;;;;5077925;28;20158;-65
2022/06/01 06:03:07;;;;;;;24.13;21.60;;;;;;;;;;5080078;28;20040;-65
2022/06/01 06:08:20;;;;;;;25.70;20.75;;;;;;;;;;5075772;28;20036;-65
2022/06/01 06:10:46;;;;;;;25.85;21.75;;;;;;;;;;5079181;28;20036;-65
2022/06/01 06:13:12;;;;;;;27.88;21.77;;;;;;;;;;5078753;28;20526;-65
2022/06/01 06:15:39;;;;;;;26.55;22.13;;;;;;;;;;5079209;28;20527;-64
2022/06/01 06:18:06;;;;;;;26.50;20.48;;;;;;;;;;5081596;28;20044;-63
2022/06/01 06:20:33;;;;;;;27.10;21.60;;;;;;;;;;5081144;28;20515;-67
2022/06/01 06:22:59;;;;;;;28.42;23.02;;;;;;;;;;5043222;28;20082;-64
2022/06/01 06:25:25;;;;;;;26.48;22.45;;;;;;;;;;5080793;28;20058;-64
2022/06/01 06:27:52;;;;;;;32.80;23.70;;;;;;;;;;5080755;28;20622;-64
2022/06/01 06:30:19;;;;;;;30.45;23.48;;;;;;;;;;5061844;28;20491;-64
2022/06/01 06:32:46;;;;;;;28.75;23.80;;;;;;;;;;5078720;28;20048;-64
2022/06/01 06:35:12;;;;;;;28.48;22.83;;;;;;;;;;5062094;28;20502;-64
2022/06/01 06:37:38;;;;;;;29.83;23.52;;;;;;;;;;5058108;28;21699;-64
2022/06/01 06:40:05;;;;;;;24.00;20.73;;;;;;;;;;5081345;28;20044;-64
2022/06/01 06:42:32;;;;;;;27.27;21.42;;;;;;;;;;5079680;28;20048;-64
2022/06/01 06:44:58;;;;;;;30.42;22.90;;;;;;;;;;5078391;28;20093;-64
2022/06/01 06:47:24;;;;;;;22.80;19.40;;;;;;;;;;5075163;28;20526;-64
2022/06/01 06:49:50;;;;;;;25.55;19.58;;;;;;;;;;5078815;28;20044;-64
2022/06/01 06:52:16;;;;;;;22.70;18.90;;;;;;;;;;5081814;28;20059;-64
2022/06/01 06:54:43;;;;;;;25.70;19.65;;;;;;;;;;5077541;28;20111;-64
2022/06/01 06:57:09;;;;;;;20.48;18.27;;;;;;;;;;5078411;28;20036;-64
2022/06/01 06:59:36;;;;;;;20.67;15.07;;;;;;;;;;5079036;28;20036;-64
2022/06/01 07:02:03;;;;;;;19.10;17.05;;;;;;;;;;5059172;28;20384;-64
2022/06/01 07:04:29;;;;;;;21.58;16.00;;;;;;;;;;5071935;28;20036;-65
2022/06/01 07:06:55;;;;;;;22.92;16.63;;;;;;;;;;5070110;28;20045;-65
2022/06/01 07:09:22;;;;;;;19.25;14.20;;;;;;;;;;5078438;28;20412;-64
2022/06/01 07:11:48;;;;;;;21.45;16.70;;;;;;;;;;5055876;28;20483;-64
2022/06/01 07:14:14;;;;;;;16.40;12.20;;;;;;;;;;5075346;28;20036;-65
2022/06/01 07:16:41;;;;;;;18.23;14.05;;;;;;;;;;5072938;28;20132;-64
2022/06/01 07:19:08;;;;;;;20.25;14.60;;;;;;;;;;5073606;28;20064;-64
2022/06/01 07:21:36;;;;;;;16.88;11.95;;;;;;;;;;5053847;28;20060;-64
2022/06/01 07:24:04;;;;;;;15.73;10.43;;;;;;;;;;5073183;28;20059;-64
2022/06/01 07:26:33;;;;;;;15.55;10.63;;;;;;;;;;5078679;28;20059;-64
2022/06/01 07:28:59;;;;;;;11.82;9.07;;;;;;;;;;5077054;28;20055;-64
2022/06/01 07:31:26;;;;;;;9.57;8.35;;;;;;;;;;5077257;28;20045;-64
2022/06/01 07:33:52;;;;;;;11.15;9.60;;;;;;;;;;5074351;28;20048;-65
2022/06/01 07:36:18;;;;;;;12.43;10.50;;;;;;;;;;5078305;28;20131;-65
2022/06/01 07:44:18;;;;;;;14.60;10.18;;;;;;;;;;5073484;28;20048;-65
2022/06/01 07:46:44;;;;;;;9.13;8.15;;;;;;;;;;5059941;28;20078;-65
2022/06/01 07:49:10;;;;;;;10.60;8.18;;;;;;;;;;5079610;28;20176;-65
2022/06/01 07:51:37;;;;;;;10.13;7.32;;;;;;;;;;5056202;28;20088;-65
2022/06/01 07:54:04;;;;;;;9.25;7.22;;;;;;;;;;5071188;28;20049;-65
2022/06/01 07:56:30;;;;;;;9.02;7.28;;;;;;;;;;5074274;28;20037;-65
2022/06/01 07:58:56;;;;;;;10.00;7.35;;;;;;;;;;5073676;28;20040;-65
2022/06/01 08:01:25;;;;;;;8.93;7.93;;;;;;;;;;5056201;28;20128;-65
2022/06/01 08:03:52;;;;;;;9.07;8.07;;;;;;;;;;5076394;28;20060;-65
2022/06/01 08:06:18;;;;;;;7.90;6.93;;;;;;;;;;5055561;28;20143;-65
2022/06/01 08:08:44;;;;;;;9.52;7.10;;;;;;;;;;5073017;28;20069;-65
2022/06/01 08:11:10;;;;;;;9.98;7.78;;;;;;;;;;5074590;28;20462;-65
2022/06/01 08:13:37;;;;;;;13.27;8.98;;;;;;;;;;5074391;28;20051;-65
2022/06/01 08:16:03;;;;;;;9.25;7.75;;;;;;;;;;5058379;28;20139;-65
2022/06/01 08:18:30;;;;;;;11.68;7.22;;;;;;;;;;5055776;28;20036;-65
2022/06/01 08:20:56;;;;;;;7.32;6.55;;;;;;;;;;5074391;28;20052;-65
2022/06/01 08:23:23;;;;;;;7.82;5.93;;;;;;;;;;5058701;28;20484;-65
2022/06/01 08:25:50;;;;;;;9.32;6.57;;;;;;;;;;5073392;28;20407;-65
2022/06/01 08:28:16;;;;;;;7.40;6.43;;;;;;;;;;5073272;28;20036;-65
2022/06/01 08:30:42;;;;;;;8.90;6.47;;;;;;;;;;5056282;28;20444;-65
2022/06/01 08:33:09;;;;;;;7.88;6.70;;;;;;;;;;5075549;28;20032;-65
2022/06/01 08:35:38;;;;;;;8.77;7.20;;;;;;;;;;5054134;28;20123;-65
2022/06/01 08:38:05;;;;;;;8.45;7.53;;;;;;;;;;5074452;28;20040;-65
2022/06/01 08:40:44;;;;;;;8.32;6.80;;;;;;;;;;5050814;28;20107;-65
2022/06/01 08:43:12;;;;;;;7.93;4.70;;;;;;;;;;5066264;28;20066;-64
2022/06/01 08:45:39;;;;;;;7.38;5.57;;;;;;;;;;5094741;28;20510;-65
2022/06/01 08:48:06;;;;;;;7.18;5.40;;;;;;;;;;5096790;28;20042;-65
2022/06/01 08:50:34;;;;;;;6.80;5.22;;;;;;;;;;5096467;28;20051;-65
2022/06/01 08:53:02;;;;;;;7.63;5.20;;;;;;;;;;5090907;28;20687;-65
2022/06/01 08:55:43;;;;;;;7.00;5.15;;;;;;;;;;5094438;28;20457;-65
2022/06/01 08:58:14;;;;;;;8.20;5.68;;;;;;;;;;5090080;28;20044;-64
2022/06/01 09:00:43;;;;;;;7.80;5.82;;;;;;;;;;5096398;28;20089;-65
2022/06/01 09:03:17;;;;;;;5.47;4.18;;;;;;;;;;5092013;28;20148;-65
2022/06/01 09:05:48;;;;;;;4.53;3.40;;;;;;;;;;5090354;28;20052;-65
2022/06/01 09:08:14;;;;;;;6.65;4.63;;;;;;;;;;5091839;28;20048;-65
2022/06/01 09:10:54;;;;;;;6.85;4.28;;;;;;;;;;5090763;28;20373;-65
2022/06/01 09:13:23;;;;;;;5.28;4.03;;;;;;;;;;5102448;28;20372;-64
2022/06/01 09:16:01;;;;;;;6.35;3.92;;;;;;;;;;5092794;28;20048;-65
2022/06/01 09:18:28;;;;;;;7.65;4.78;;;;;;;;;;5096802;28;20047;-64
2022/06/01 09:23:40;;;;;;;5.65;4.82;;;;;;;;;;5099144;27;20491;-65
2022/06/01 09:26:06;;;;;;;5.80;4.70;;;;;;;;;;5098618;28;20099;-64
2022/06/01 09:28:37;;;;;;;6.07;4.53;;;;;;;;;;5093055;28;20075;-64
2022/06/01 09:31:09;;;;;;;6.20;4.80;;;;;;;;;;5097021;28;20449;-65
2022/06/01 09:33:38;;;;;;;6.13;4.07;;;;;;;;;;5094746;28;20036;-64
2022/06/01 09:36:16;;;;;;;8.05;4.28;;;;;;;;;;5095597;28;20039;-64
2022/06/01 09:38:48;;;;;;;5.90;3.90;;;;;;;;;;5090924;28;20060;-64
2022/06/01 09:41:23;;;;;;;5.70;4.50;;;;;;;;;;5097574;28;20097;-64
2022/06/01 09:43:51;;;;;;;6.55;5.00;;;;;;;;;;5086947;28;20404;-64
2022/06/01 09:46:32;;;;;;;7.22;5.32;;;;;;;;;;5052112;28;20082;-65
2022/06/01 09:48:58;;;;;;;7.30;4.10;;;;;;;;;;5072493;28;20067;-65
2022/06/01 09:51:25;;;;;;;7.63;4.18;;;;;;;;;;5077285;28;20387;-65
2022/06/01 09:53:53;;;;;;;5.55;2.63;;;;;;;;;;5074596;28;20492;-65
2022/06/01 09:56:29;;;;;;;4.07;2.60;;;;;;;;;;5075117;28;20164;-65
2022/06/01 10:07:24;;;;;;;2.90;1.63;;;;;;;;;;5071238;28;20145;-65
2022/06/01 10:09:52;;;;;;;2.63;1.45;;;;;;;;;;5074024;28;20479;-65
2022/06/01 10:12:32;;;;;;;2.35;1.45;;;;;;;;;;5070061;28;20410;-65
2022/06/01 10:14:58;;;;;;;5.57;1.88;;;;;;;;;;5053711;28;20049;-65
2022/06/01 10:17:32;;;;;;;3.58;1.35;;;;;;;;;;5073793;28;20051;-65
2022/06/01 10:20:16;;;;;;;4.43;1.80;;;;;;;;;;5084628;28;20048;-65
2022/06/01 10:22:46;;;;;;;4.72;1.88;;;;;;;;;;5080076;28;20461;-65
2022/06/01 10:25:20;;;;;;;4.75;1.90;;;;;;;;;;5089746;28;20367;-65
2022/06/01 10:27:56;;;;;;;3.92;2.00;;;;;;;;;;5059807;28;20097;-65
2022/06/01 10:30:27;;;;;;;3.53;2.10;;;;;;;;;;5078821;28;20043;-65
2022/06/01 10:33:03;;;;;;;5.20;2.15;;;;;;;;;;5068985;28;20057;-65
2022/06/01 10:35:32;;;;;;;3.28;2.05;;;;;;;;;;5083832;28;20097;-65
2022/06/01 10:38:02;;;;;;;4.70;2.80;;;;;;;;;;5066781;28;20052;-64
2022/06/01 10:40:38;;;;;;;5.47;3.05;;;;;;;;;;5083932;28;20708;-65
2022/06/01 10:43:17;;;;;;;3.97;2.17;;;;;;;;;;5086978;28;20560;-65
2022/06/01 10:45:47;;;;;;;3.75;2.25;;;;;;;;;;5086859;28;20051;-65
2022/06/01 10:48:15;;;;;;;4.57;2.78;;;;;;;;;;5088705;28;20036;-65
2022/06/01 10:50:48;;;;;;;6.93;2.78;;;;;;;;;;5076586;28;20040;-65
2022/06/01 10:53:18;;;;;;;4.22;2.38;;;;;;;;;;5064717;28;20552;-65
2022/06/01 10:55:44;;;;;;;3.92;2.65;;;;;;;;;;5082675;28;20051;-65
2022/06/01 10:58:15;;;;;;;5.03;2.72;;;;;;;;;;5086526;28;20078;-65
2022/06/01 11:00:49;;;;;;;3.90;2.58;;;;;;;;;;5063974;28;20480;-65
2022/06/01 11:03:32;;;;;;;4.97;2.55;;;;;;;;;;5068651;28;20557;-65
2022/06/01 11:06:03;;;;;;;3.88;2.38;;;;;;;;;;5087583;28;20530;-65
2022/06/01 11:08:30;;;;;;;3.83;2.50;;;;;;;;;;5083093;28;20029;-65
2022/06/01 11:10:59;;;;;;;4.18;2.05;;;;;;;;;;5088192;28;20063;-65
2022/06/01 11:13:26;;;;;;;3.67;2.20;;;;;;;;;;5087214;28;20409;-65
2022/06/01 11:15:57;;;;;;;3.55;2.42;;;;;;;;;;5086850;28;20047;-65
2022/06/01 11:18:31;;;;;;;4.78;2.60;;;;;;;;;;5083978;28;20047;-65
2022/06/01 11:21:05;;;;;;;5.70;2.80;;;;;;;;;;5083365;28;20051;-65
2022/06/01 11:23:46;;;;;;;6.43;3.42;;;;;;;;;;5083857;28;20452;-65
2022/06/01 11:26:24;;;;;;;4.30;3.05;;;;;;;;;;5070387;28;20032;-65
2022/06/01 11:29:07;;;;;;;4.78;3.55;;;;;;;;;;5089441;28;20044;-65
2022/06/01 11:31:33;;;;;;;4.95;2.50;;;;;;;;;;5086839;28;20047;-65
2022/06/01 11:34:06;;;;;;;5.53;2.95;;;;;;;;;;5087781;28;20119;-65
2022/06/01 11:36:38;;;;;;;6.15;3.45;;;;;;;;;;5090197;28;20059;-65
2022/06/01 11:39:13;;;;;;;6.38;3.30;;;;;;;;;;5082549;28;20504;-65
2022/06/01 11:41:40;;;;;;;5.55;2.55;;;;;;;;;;5069068;28;20052;-64
2022/06/01 11:44:09;;;;;;;8.38;2.70;;;;;;;;;;5086434;28;20102;-64
2022/06/01 11:46:39;;;;;;;4.78;3.00;;;;;;;;;;5066935;28;20105;-64
2022/06/01 11:49:11;;;;;;;4.03;2.50;;;;;;;;;;5084104;28;20396;-64
2022/06/01 11:51:37;;;;;;;5.45;3.47;;;;;;;;;;5089199;28;20418;-63
2022/06/01 11:54:08;;;;;;;4.32;2.65;;;;;;;;;;5084296;28;20040;-63
2022/06/01 11:56:35;;;;;;;5.38;2.72;;;;;;;;;;5088513;28;20048;-63
2022/06/01 11:59:13;;;;;;;3.95;2.85;;;;;;;;;;5064745;28;20388;-62
2022/06/01 12:01:47;;;;;;;5.18;3.22;;;;;;;;;;5080720;28;20105;-63
2022/06/01 12:04:21;;;;;;;7.32;4.40;;;;;;;;;;5086290;28;20085;-63
2022/06/01 12:06:57;;;;;;;6.90;4.82;;;;;;;;;;5083022;28;20142;-63
2022/06/01 12:09:30;;;;;;;6.32;4.85;;;;;;;;;;5082441;28;20479;-63
2022/06/01 12:11:56;;;;;;;7.82;5.30;;;;;;;;;;5089043;28;20048;-64
2022/06/01 12:14:26;;;;;;;8.82;4.85;;;;;;;;;;5067034;28;20808;-64
2022/06/01 12:17:25;;;;;;;8.20;5.30;;;;;;;;;;5087974;28;20048;-63
2022/06/01 12:19:53;;;;;;;9.10;5.25;;;;;;;;;;5067532;28;20048;-63
2022/06/01 12:30:56;;;;;;;10.65;6.15;;;;;;;;;;5083672;28;20048;-64
2022/06/01 12:33:23;;;;;;;4.32;3.17;;;;;;;;;;5088609;28;20032;-64
2022/06/01 12:35:50;;;;;;;6.07;3.55;;;;;;;;;;5082953;28;20054;-64
2022/06/01 12:38:19;;;;;;;5.38;3.15;;;;;;;;;;5082478;28;20525;-63
2022/06/01 12:40:54;;;;;;;5.55;3.60;;;;;;;;;;5084737;28;20062;-64
2022/06/01 12:43:20;;;;;;;7.95;4.38;;;;;;;;;;5084992;28;20059;-64
2022/06/01 12:45:47;;;;;;;5.30;4.13;;;;;;;;;;5092449;28;20116;-65
2022/06/01 12:48:14;;;;;;;6.93;4.40;;;;;;;;;;5079213;28;20352;-65
2022/06/01 12:50:47;;;;;;;6.68;4.85;;;;;;;;;;5074288;28;20048;-65
2022/06/01 12:53:17;;;;;;;8.27;4.53;;;;;;;;;;5074937;28;20070;-65
2022/06/01 12:55:45;;;;;;;5.35;4.18;;;;;;;;;;5092392;28;20471;-65
2022/06/01 12:58:15;;;;;;;7.53;4.00;;;;;;;;;;5092381;28;20036;-65
2022/06/01 13:00:45;;;;;;;6.88;4.63;;;;;;;;;;5093106;28;20048;-65
2022/06/01 13:03:12;;;;;;;6.18;4.90;;;;;;;;;;5074273;28;20041;-65
2022/06/01 13:05:41;;;;;;;6.95;5.53;;;;;;;;;;5072886;28;20112;-65
2022/06/01 13:08:11;;;;;;;10.45;6.57;;;;;;;;;;5078201;28;20043;-65
2022/06/01 13:10:37;;;;;;;9.80;7.05;;;;;;;;;;5071832;28;20097;-65
2022/06/01 13:13:05;;;;;;;9.30;6.07;;;;;;;;;;5076099;28;20100;-64
2022/06/01 13:15:31;;;;;;;8.02;5.45;;;;;;;;;;5083318;28;20398;-64
2022/06/01 13:17:59;;;;;;;9.38;6.95;;;;;;;;;;5069073;28;20048;-64
2022/06/01 13:20:36;;;;;;;7.82;6.53;;;;;;;;;;5083141;28;20035;-64
2022/06/01 13:23:03;;;;;;;10.68;6.35;;;;;;;;;;5084629;28;20048;-64
2022/06/01 13:25:31;;;;;;;8.13;6.03;;;;;;;;;;5085066;28;20043;-64
2022/06/01 13:27:58;;;;;;;7.72;6.47;;;;;;;;;;5062282;28;20101;-64
2022/06/01 13:30:25;;;;;;;12.25;6.88;;;;;;;;;;5069615;28;20048;-64
2022/06/01 13:32:52;;;;;;;10.43;6.90;;;;;;;;;;5071309;28;20452;-65
2022/06/01 13:35:32;;;;;;;7.63;6.38;;;;;;;;;;5084861;28;20036;-65
2022/06/01 13:37:58;;;;;;;7.75;5.80;;;;;;;;;;5084172;28;20044;-64
2022/06/01 13:40:27;;;;;;;8.98;5.57;;;;;;;;;;5082880;28;20036;-64
2022/06/01 13:43:02;;;;;;;8.48;5.22;;;;;;;;;;5072190;28;20193;-64
2022/06/01 13:45:42;;;;;;;7.95;5.20;;;;;;;;;;5105726;28;20054;-64
2022/06/01 13:48:15;;;;;;;6.25;5.00;;;;;;;;;;5102150;28;20052;-64
2022/06/01 13:50:43;;;;;;;9.23;4.97;;;;;;;;;;5103301;28;20048;-64
2022/06/01 13:53:27;;;;;;;6.35;4.00;;;;;;;;;;5104289;28;20115;-64
2022/06/01 13:55:55;;;;;;;7.72;5.10;;;;;;;;;;5103814;28;20043;-65
2022/06/01 13:58:27;;;;;;;4.82;3.30;;;;;;;;;;5105826;28;20047;-64
2022/06/01 14:01:06;;;;;;;8.48;4.70;;;;;;;;;;5103018;28;20044;-64
2022/06/01 14:03:35;;;;;;;7.50;3.85;;;;;;;;;;5106677;28;20062;-64
2022/06/01 14:06:06;;;;;;;7.47;4.30;;;;;;;;;;5108060;28;20051;-64
2022/06/01 14:08:33;;;;;;;7.30;4.05;;;;;;;;;;5100116;28;20127;-64
2022/06/01 14:11:03;;;;;;;4.45;3.45;;;;;;;;;;5109441;28;20035;-64
2022/06/01 14:13:31;;;;;;;5.28;3.25;;;;;;;;;;5102933;28;20498;-64
2022/06/01 14:15:57;;;;;;;5.28;2.55;;;;;;;;;;5104700;28;20040;-64
2022/06/01 14:18:26;;;;;;;6.15;3.13;;;;;;;;;;5104891;28;20040;-64
2022/06/01 14:20:53;;;;;;;4.07;2.20;;;;;;;;;;5105231;28;20040;-64
2022/06/01 14:23:19;;;;;;;3.35;1.98;;;;;;;;;;5103840;28;20111;-64
2022/06/01 14:28:32;;;;;;;6.82;2.65;;;;;;;;;;5107014;28;20071;-64
2022/06/01 14:31:00;;;;;;;5.65;3.00;;;;;;;;;;5100776;28;20081;-64
2022/06/01 14:33:27;;;;;;;7.15;2.85;;;;;;;;;;5111409;28;20044;-64
2022/06/01 14:35:54;;;;;;;5.10;3.00;;;;;;;;;;5107559;28;20078;-64
2022/06/01 14:38:21;;;;;;;4.97;2.75;;;;;;;;;;5112519;28;20052;-64
2022/06/01 14:40:48;;;;;;;4.97;3.03;;;;;;;;;;5106439;28;20044;-64
2022/06/01 14:43:16;;;;;;;4.82;2.47;;;;;;;;;;5102817;28;20055;-64
2022/06/01 14:45:42;;;;;;;4.68;2.75;;;;;;;;;;5089182;28;20055;-64
2022/06/01 14:48:08;;;;;;;4.70;2.67;;;;;;;;;;5071064;28;20629;-64
2022/06/01 14:50:35;;;;;;;4.63;3.20;;;;;;;;;;5090730;28;20122;-64
2022/06/01 14:53:19;;;;;;;5.47;3.63;;;;;;;;;;5087828;28;20452;-64
2022/06/01 14:55:45;;;;;;;5.50;3.70;;;;;;;;;;5084002;28;20051;-64
2022/06/01 14:58:11;;;;;;;7.55;4.07;;;;;;;;;;5079752;28;20036;-64
2022/06/01 15:00:38;;;;;;;4.60;3.38;;;;;;;;;;5082746;28;20047;-64
2022/06/01 15:03:04;;;;;;;7.03;3.75;;;;;;;;;;5068640;28;20060;-64
2022/06/01 15:05:31;;;;;;;8.02;4.10;;;;;;;;;;5067119;28;20048;-65
2022/06/01 15:07:57;;;;;;;6.35;3.92;;;;;;;;;;5082840;28;20036;-64
2022/06/01 15:10:23;;;;;;;7.88;3.90;;;;;;;;;;5090779;28;20093;-64
2022/06/01 15:12:50;;;;;;;5.90;4.32;;;;;;;;;;5069343;28;20097;-64